This is the latest recevied weather packets stored in our database for station/object OE3TEC-15. If no packets are shown the sender has not sent any weather packets the latest 10 day(s).
| Time | Temp. | Humidity | Pressure | Rain* | Wind** | Luminosity | Snow |
|---|---|---|---|---|---|---|---|
| 1788550189 | 19.44° C | 67% | 1013.9 hPa | 0 mm | - | 0 W/m² | - |
| 1788548968 | 20° C | 65% | 1013.9 hPa | 0 mm | - | 0 W/m² | - |
| 1788548332 | 19.44° C | 66% | 1013.9 hPa | 0 mm | - | 0 W/m² | - |
| 1788546509 | 20.56° C | 63% | 1013.4 hPa | 0 mm | - | 0 W/m² | - |
| 1788545292 | 21.11° C | 62% | 1013.3 hPa | 0 mm | - | 0 W/m² | - |
| 1788544680 | 22.22° C | 59% | 1013.1 hPa | 0 mm | - | 0 W/m² | - |
| 1788544043 | 22.78° C | 57% | 1013 hPa | 0 mm | - | 0 W/m² | - |
| 1788540346 | 30.56° C | 35% | 1013.2 hPa | 0 mm | - | 21 W/m² | - |
| 1788538532 | 31.11° C | 33% | 1013.7 hPa | 0 mm | - | 39 W/m² | - |
| 1788537924 | 31.11° C | 33% | 1013.9 hPa | 0 mm | - | 48 W/m² | - |
| 1788537284 | 31.11° C | 33% | 1013.9 hPa | 0 mm | - | 72 W/m² | - |
| 1788536044 | 31.11° C | 34% | 1014.1 hPa | 0 mm | - | 109 W/m² | - |
| 1788534804 | 31.11° C | 34% | 1014.5 hPa | 0 mm | - | 149 W/m² | - |
| 1788534200 | 31.11° C | 35% | 1014.7 hPa | 0 mm | - | 183 W/m² | - |
| 1788531732 | 31.11° C | 36% | 1015.1 hPa | 0 mm | - | 297 W/m² | - |
| 1788531132 | 31.67° C | 36% | 1015.3 hPa | 0 mm | - | 325 W/m² | - |
| 1788529913 | 31.11° C | 37% | 1015.8 hPa | 0 mm | - | 374 W/m² | - |
| 1788524954 | 29.44° C | 39% | 1016.6 hPa | 0 mm | - | 327 W/m² | - |
| 1788521828 | 28.89° C | 43% | 1017.4 hPa | 0 mm | - | 595 W/m² | - |
| 1788519349 | 28.89° C | 41% | 1018.1 hPa | 0 mm | - | 615 W/m² | - |
| 1788518744 | 29.44° C | 41% | 1018.2 hPa | 0 mm | - | 162 W/m² | - |
| 1788517504 | 28.89° C | 44% | 1018.4 hPa | 0 mm | - | 201 W/m² | - |
| 1788516868 | 27.22° C | 48% | 1018.9 hPa | 0 mm | - | 432 W/m² | - |
| 1788515628 | 27.22° C | 49% | 1019.1 hPa | 0 mm | - | 514 W/m² | - |
| 1788511976 | 26.11° C | 51% | 1019.9 hPa | 0 mm | - | 461 W/m² | - |
* Rain latest hour (hover to see other rain measurements)
** Current wind speed in m/s (hover to see current wind gust speed)